sensor_id;sensor_type;location;lat;lon;timestamp;temperature;humidity
9939;DHT22;5008;50.656;7.188;2022-10-29T00:00:15;15.10;99.90
9939;DHT22;5008;50.656;7.188;2022-10-29T00:02:42;15.10;99.90
9939;DHT22;5008;50.656;7.188;2022-10-29T00:05:09;15.10;99.90
9939;DHT22;5008;50.656;7.188;2022-10-29T00:07:36;15.10;99.90
9939;DHT22;5008;50.656;7.188;2022-10-29T00:10:07;15.10;99.90
9939;DHT22;5008;50.656;7.188;2022-10-29T00:12:34;15.10;99.90
9939;DHT22;5008;50.656;7.188;2022-10-29T00:15:02;15.10;99.90
9939;DHT22;5008;50.656;7.188;2022-10-29T00:17:29;15.00;99.90
9939;DHT22;5008;50.656;7.188;2022-10-29T00:19:56;15.00;99.90
9939;DHT22;5008;50.656;7.188;2022-10-29T00:22:23;15.00;99.90
9939;DHT22;5008;50.656;7.188;2022-10-29T00:24:50;15.00;99.90
9939;DHT22;5008;50.656;7.188;2022-10-29T00:27:19;15.00;99.90
9939;DHT22;5008;50.656;7.188;2022-10-29T00:29:46;14.90;99.90
9939;DHT22;5008;50.656;7.188;2022-10-29T00:32:13;14.90;99.90
9939;DHT22;5008;50.656;7.188;2022-10-29T00:34:40;14.80;99.90
9939;DHT22;5008;50.656;7.188;2022-10-29T00:37:07;14.80;99.90
9939;DHT22;5008;50.656;7.188;2022-10-29T00:39:34;14.80;99.90
9939;DHT22;5008;50.656;7.188;2022-10-29T00:42:01;14.80;99.90
9939;DHT22;5008;50.656;7.188;2022-10-29T00:44:32;14.80;99.90
9939;DHT22;5008;50.656;7.188;2022-10-29T00:47:10;14.80;99.90
9939;DHT22;5008;50.656;7.188;2022-10-29T00:49:40;14.70;99.90
9939;DHT22;5008;50.656;7.188;2022-10-29T00:52:09;14.70;99.90
9939;DHT22;5008;50.656;7.188;2022-10-29T00:54:39;14.70;99.90
9939;DHT22;5008;50.656;7.188;2022-10-29T00:57:10;14.70;99.90
9939;DHT22;5008;50.656;7.188;2022-10-29T00:59:40;14.70;99.90
9939;DHT22;5008;50.656;7.188;2022-10-29T01:02:08;14.70;99.90
9939;DHT22;5008;50.656;7.188;2022-10-29T01:04:35;14.70;99.90
9939;DHT22;5008;50.656;7.188;2022-10-29T01:07:03;14.70;99.90
9939;DHT22;5008;50.656;7.188;2022-10-29T01:09:30;14.80;99.90
9939;DHT22;5008;50.656;7.188;2022-10-29T01:12:11;14.80;99.90
9939;DHT22;5008;50.656;7.188;2022-10-29T01:14:51;14.70;99.90
9939;DHT22;5008;50.656;7.188;2022-10-29T01:17:31;14.70;99.90
9939;DHT22;5008;50.656;7.188;2022-10-29T01:20:31;14.60;99.90
9939;DHT22;5008;50.656;7.188;2022-10-29T01:23:14;14.70;99.90
9939;DHT22;5008;50.656;7.188;2022-10-29T01:26:03;14.80;99.90
9939;DHT22;5008;50.656;7.188;2022-10-29T01:28:45;14.80;99.90
9939;DHT22;5008;50.656;7.188;2022-10-29T01:31:25;14.90;99.90
9939;DHT22;5008;50.656;7.188;2022-10-29T01:34:03;14.90;99.90
9939;DHT22;5008;50.656;7.188;2022-10-29T01:36:37;14.90;99.90
9939;DHT22;5008;50.656;7.188;2022-10-29T01:39:08;15.00;99.90
9939;DHT22;5008;50.656;7.188;2022-10-29T01:41:49;14.90;99.90
9939;DHT22;5008;50.656;7.188;2022-10-29T01:44:27;14.80;99.90
9939;DHT22;5008;50.656;7.188;2022-10-29T01:46:59;14.80;99.90
9939;DHT22;5008;50.656;7.188;2022-10-29T01:49:31;14.70;99.90
9939;DHT22;5008;50.656;7.188;2022-10-29T01:52:00;14.60;99.90
9939;DHT22;5008;50.656;7.188;2022-10-29T01:54:28;14.50;99.90
9939;DHT22;5008;50.656;7.188;2022-10-29T01:56:56;14.50;99.90
9939;DHT22;5008;50.656;7.188;2022-10-29T01:59:27;14.60;99.90
9939;DHT22;5008;50.656;7.188;2022-10-29T02:02:04;14.60;99.90
9939;DHT22;5008;50.656;7.188;2022-10-29T02:04:58;14.50;99.90
9939;DHT22;5008;50.656;7.188;2022-10-29T02:07:40;14.40;99.90
9939;DHT22;5008;50.656;7.188;2022-10-29T02:10:17;14.40;99.90
9939;DHT22;5008;50.656;7.188;2022-10-29T02:12:48;14.30;99.90
9939;DHT22;5008;50.656;7.188;2022-10-29T02:15:18;14.30;99.90
9939;DHT22;5008;50.656;7.188;2022-10-29T02:17:49;14.30;99.90
9939;DHT22;5008;50.656;7.188;2022-10-29T02:20:16;14.20;99.90
9939;DHT22;5008;50.656;7.188;2022-10-29T02:22:43;14.20;99.90
9939;DHT22;5008;50.656;7.188;2022-10-29T02:25:10;14.30;99.90
9939;DHT22;5008;50.656;7.188;2022-10-29T02:27:38;14.40;99.90
9939;DHT22;5008;50.656;7.188;2022-10-29T02:30:07;14.40;99.90
9939;DHT22;5008;50.656;7.188;2022-10-29T02:32:34;14.40;99.90
9939;DHT22;5008;50.656;7.188;2022-10-29T02:35:03;14.40;99.90
9939;DHT22;5008;50.656;7.188;2022-10-29T02:37:30;14.40;99.90
9939;DHT22;5008;50.656;7.188;2022-10-29T02:39:57;14.40;99.90
9939;DHT22;5008;50.656;7.188;2022-10-29T02:42:24;14.40;99.90
9939;DHT22;5008;50.656;7.188;2022-10-29T02:44:51;14.50;99.90
9939;DHT22;5008;50.656;7.188;2022-10-29T02:47:18;14.50;99.90
9939;DHT22;5008;50.656;7.188;2022-10-29T02:49:45;14.40;99.90
9939;DHT22;5008;50.656;7.188;2022-10-29T02:52:14;14.40;99.90
9939;DHT22;5008;50.656;7.188;2022-10-29T02:54:41;14.30;99.90
9939;DHT22;5008;50.656;7.188;2022-10-29T02:57:08;14.20;99.90
9939;DHT22;5008;50.656;7.188;2022-10-29T02:59:35;14.10;99.90
9939;DHT22;5008;50.656;7.188;2022-10-29T03:02:03;14.20;99.90
9939;DHT22;5008;50.656;7.188;2022-10-29T03:04:30;14.10;99.90
9939;DHT22;5008;50.656;7.188;2022-10-29T03:06:57;14.10;99.90
9939;DHT22;5008;50.656;7.188;2022-10-29T03:09:25;14.10;99.90
9939;DHT22;5008;50.656;7.188;2022-10-29T03:11:52;14.00;99.90
9939;DHT22;5008;50.656;7.188;2022-10-29T03:14:20;14.00;99.90
9939;DHT22;5008;50.656;7.188;2022-10-29T03:16:47;14.10;99.90
9939;DHT22;5008;50.656;7.188;2022-10-29T03:19:14;14.00;99.90
9939;DHT22;5008;50.656;7.188;2022-10-29T03:21:41;14.00;99.90
9939;DHT22;5008;50.656;7.188;2022-10-29T03:24:07;14.10;99.90
9939;DHT22;5008;50.656;7.188;2022-10-29T03:26:36;14.10;99.90
9939;DHT22;5008;50.656;7.188;2022-10-29T03:29:02;14.10;99.90
9939;DHT22;5008;50.656;7.188;2022-10-29T03:31:29;14.00;99.90
9939;DHT22;5008;50.656;7.188;2022-10-29T03:33:56;14.00;99.90
9939;DHT22;5008;50.656;7.188;2022-10-29T03:36:23;14.00;99.90
9939;DHT22;5008;50.656;7.188;2022-10-29T03:38:50;14.10;99.90
9939;DHT22;5008;50.656;7.188;2022-10-29T03:41:16;14.10;99.90
9939;DHT22;5008;50.656;7.188;2022-10-29T03:43:45;14.10;99.90
9939;DHT22;5008;50.656;7.188;2022-10-29T03:46:11;14.10;99.90
9939;DHT22;5008;50.656;7.188;2022-10-29T03:48:38;14.10;99.90
9939;DHT22;5008;50.656;7.188;2022-10-29T03:51:05;14.00;99.90
9939;DHT22;5008;50.656;7.188;2022-10-29T03:53:33;14.10;99.90
9939;DHT22;5008;50.656;7.188;2022-10-29T03:56:01;14.00;99.90
9939;DHT22;5008;50.656;7.188;2022-10-29T03:58:42;14.00;99.90
9939;DHT22;5008;50.656;7.188;2022-10-29T04:01:10;14.10;99.90
9939;DHT22;5008;50.656;7.188;2022-10-29T04:03:38;14.10;99.90
9939;DHT22;5008;50.656;7.188;2022-10-29T04:06:09;14.20;99.90
9939;DHT22;5008;50.656;7.188;2022-10-29T04:08:36;14.20;99.90
9939;DHT22;5008;50.656;7.188;2022-10-29T04:11:03;14.20;99.90
9939;DHT22;5008;50.656;7.188;2022-10-29T04:13:30;14.20;99.90
9939;DHT22;5008;50.656;7.188;2022-10-29T04:15:57;14.20;99.90
9939;DHT22;5008;50.656;7.188;2022-10-29T04:18:25;14.20;99.90
9939;DHT22;5008;50.656;7.188;2022-10-29T04:20:52;14.20;99.90
9939;DHT22;5008;50.656;7.188;2022-10-29T04:23:19;14.20;99.90
9939;DHT22;5008;50.656;7.188;2022-10-29T04:25:54;14.20;99.90
9939;DHT22;5008;50.656;7.188;2022-10-29T04:28:21;14.10;99.90
9939;DHT22;5008;50.656;7.188;2022-10-29T04:30:48;14.10;99.90
9939;DHT22;5008;50.656;7.188;2022-10-29T04:33:15;14.10;99.90
9939;DHT22;5008;50.656;7.188;2022-10-29T04:35:43;14.10;99.90
9939;DHT22;5008;50.656;7.188;2022-10-29T04:38:11;14.10;99.90
9939;DHT22;5008;50.656;7.188;2022-10-29T04:40:38;14.20;99.90
9939;DHT22;5008;50.656;7.188;2022-10-29T04:43:04;14.30;99.90
9939;DHT22;5008;50.656;7.188;2022-10-29T04:45:40;14.30;99.90
9939;DHT22;5008;50.656;7.188;2022-10-29T04:48:07;14.30;99.90
9939;DHT22;5008;50.656;7.188;2022-10-29T04:50:36;14.30;99.90
9939;DHT22;5008;50.656;7.188;2022-10-29T04:53:05;14.30;99.90
9939;DHT22;5008;50.656;7.188;2022-10-29T04:55:41;14.30;99.90
9939;DHT22;5008;50.656;7.188;2022-10-29T04:58:15;14.30;99.90
9939;DHT22;5008;50.656;7.188;2022-10-29T05:00:43;14.30;99.90
9939;DHT22;5008;50.656;7.188;2022-10-29T05:03:11;14.30;99.90
9939;DHT22;5008;50.656;7.188;2022-10-29T05:05:41;14.30;99.90
9939;DHT22;5008;50.656;7.188;2022-10-29T05:08:09;14.30;99.90
9939;DHT22;5008;50.656;7.188;2022-10-29T05:10:38;14.30;99.90
9939;DHT22;5008;50.656;7.188;2022-10-29T05:13:07;14.30;99.90
9939;DHT22;5008;50.656;7.188;2022-10-29T05:15:35;14.30;99.90
9939;DHT22;5008;50.656;7.188;2022-10-29T05:18:03;14.30;99.90
9939;DHT22;5008;50.656;7.188;2022-10-29T05:20:30;14.30;99.90
9939;DHT22;5008;50.656;7.188;2022-10-29T05:22:58;14.50;99.90
9939;DHT22;5008;50.656;7.188;2022-10-29T05:25:27;14.50;99.90
9939;DHT22;5008;50.656;7.188;2022-10-29T05:28:01;14.70;99.90
9939;DHT22;5008;50.656;7.188;2022-10-29T05:30:29;14.70;99.90
9939;DHT22;5008;50.656;7.188;2022-10-29T05:32:56;14.70;99.90
9939;DHT22;5008;50.656;7.188;2022-10-29T05:35:23;14.60;99.90
9939;DHT22;5008;50.656;7.188;2022-10-29T05:37:50;14.70;99.90
9939;DHT22;5008;50.656;7.188;2022-10-29T05:40:17;14.80;99.90
9939;DHT22;5008;50.656;7.188;2022-10-29T05:42:46;14.80;99.90
9939;DHT22;5008;50.656;7.188;2022-10-29T05:45:13;14.80;99.90
9939;DHT22;5008;50.656;7.188;2022-10-29T05:47:40;14.90;99.90
9939;DHT22;5008;50.656;7.188;2022-10-29T05:50:08;14.80;99.90
9939;DHT22;5008;50.656;7.188;2022-10-29T05:52:35;14.80;99.90
9939;DHT22;5008;50.656;7.188;2022-10-29T05:55:02;14.80;99.90
9939;DHT22;5008;50.656;7.188;2022-10-29T05:57:29;14.70;99.90
9939;DHT22;5008;50.656;7.188;2022-10-29T05:59:57;14.70;99.90
9939;DHT22;5008;50.656;7.188;2022-10-29T06:02:24;14.70;99.90
9939;DHT22;5008;50.656;7.188;2022-10-29T06:04:50;14.70;99.90
9939;DHT22;5008;50.656;7.188;2022-10-29T06:07:17;14.70;99.90
9939;DHT22;5008;50.656;7.188;2022-10-29T06:09:44;14.70;99.90
9939;DHT22;5008;50.656;7.188;2022-10-29T06:12:11;14.60;99.90
9939;DHT22;5008;50.656;7.188;2022-10-29T06:14:37;14.70;99.90
9939;DHT22;5008;50.656;7.188;2022-10-29T06:17:05;14.60;99.90
9939;DHT22;5008;50.656;7.188;2022-10-29T06:19:32;14.60;99.90
9939;DHT22;5008;50.656;7.188;2022-10-29T06:21:59;14.60;99.90
9939;DHT22;5008;50.656;7.188;2022-10-29T06:24:26;14.60;99.90
9939;DHT22;5008;50.656;7.188;2022-10-29T06:26:52;14.60;99.90
9939;DHT22;5008;50.656;7.188;2022-10-29T06:29:19;14.60;99.90
9939;DHT22;5008;50.656;7.188;2022-10-29T06:31:46;14.60;99.90
9939;DHT22;5008;50.656;7.188;2022-10-29T06:34:14;14.60;99.90
9939;DHT22;5008;50.656;7.188;2022-10-29T06:36:41;14.60;99.90
9939;DHT22;5008;50.656;7.188;2022-10-29T06:39:08;14.70;99.90
9939;DHT22;5008;50.656;7.188;2022-10-29T06:41:34;14.70;99.90
9939;DHT22;5008;50.656;7.188;2022-10-29T06:44:01;14.70;99.90
9939;DHT22;5008;50.656;7.188;2022-10-29T06:46:28;14.70;99.90
9939;DHT22;5008;50.656;7.188;2022-10-29T06:48:55;14.80;99.90
9939;DHT22;5008;50.656;7.188;2022-10-29T06:51:23;14.80;99.90
9939;DHT22;5008;50.656;7.188;2022-10-29T06:53:50;14.80;99.90
9939;DHT22;5008;50.656;7.188;2022-10-29T06:56:18;14.80;99.90
9939;DHT22;5008;50.656;7.188;2022-10-29T06:58:45;14.90;99.90
9939;DHT22;5008;50.656;7.188;2022-10-29T07:01:12;15.10;99.90
9939;DHT22;5008;50.656;7.188;2022-10-29T07:03:39;15.20;99.90
9939;DHT22;5008;50.656;7.188;2022-10-29T07:06:06;15.30;99.90
9939;DHT22;5008;50.656;7.188;2022-10-29T07:08:34;15.40;99.90
9939;DHT22;5008;50.656;7.188;2022-10-29T07:11:01;15.30;99.90
9939;DHT22;5008;50.656;7.188;2022-10-29T07:13:29;15.30;99.90
9939;DHT22;5008;50.656;7.188;2022-10-29T07:15:55;15.30;99.90
9939;DHT22;5008;50.656;7.188;2022-10-29T07:18:22;15.30;99.90
9939;DHT22;5008;50.656;7.188;2022-10-29T07:20:49;15.40;99.90
9939;DHT22;5008;50.656;7.188;2022-10-29T07:23:16;15.40;99.90
9939;DHT22;5008;50.656;7.188;2022-10-29T07:25:44;15.40;99.90
9939;DHT22;5008;50.656;7.188;2022-10-29T07:28:12;15.40;99.90
9939;DHT22;5008;50.656;7.188;2022-10-29T07:30:41;15.40;99.90
9939;DHT22;5008;50.656;7.188;2022-10-29T07:33:08;15.50;99.90
9939;DHT22;5008;50.656;7.188;2022-10-29T07:35:35;15.50;99.90
9939;DHT22;5008;50.656;7.188;2022-10-29T07:38:04;15.60;99.90
9939;DHT22;5008;50.656;7.188;2022-10-29T07:40:31;15.70;99.90
9939;DHT22;5008;50.656;7.188;2022-10-29T07:42:59;15.70;99.90
9939;DHT22;5008;50.656;7.188;2022-10-29T07:45:26;15.80;99.90
9939;DHT22;5008;50.656;7.188;2022-10-29T07:47:57;15.90;99.90
9939;DHT22;5008;50.656;7.188;2022-10-29T07:50:25;16.00;99.90
9939;DHT22;5008;50.656;7.188;2022-10-29T07:52:52;16.10;99.90
9939;DHT22;5008;50.656;7.188;2022-10-29T07:55:19;16.10;99.90
9939;DHT22;5008;50.656;7.188;2022-10-29T07:57:46;16.20;99.90
9939;DHT22;5008;50.656;7.188;2022-10-29T08:00:14;16.20;99.90
9939;DHT22;5008;50.656;7.188;2022-10-29T08:02:41;16.20;99.90
9939;DHT22;5008;50.656;7.188;2022-10-29T08:05:08;16.30;99.90
9939;DHT22;5008;50.656;7.188;2022-10-29T08:07:35;16.30;99.90
9939;DHT22;5008;50.656;7.188;2022-10-29T08:10:02;16.40;99.90
9939;DHT22;5008;50.656;7.188;2022-10-29T08:12:28;16.40;99.90
9939;DHT22;5008;50.656;7.188;2022-10-29T08:14:55;16.50;99.90
9939;DHT22;5008;50.656;7.188;2022-10-29T08:17:23;16.50;99.90
9939;DHT22;5008;50.656;7.188;2022-10-29T08:19:50;16.60;99.90
9939;DHT22;5008;50.656;7.188;2022-10-29T08:22:17;16.60;99.90
9939;DHT22;5008;50.656;7.188;2022-10-29T08:24:44;16.70;99.90
9939;DHT22;5008;50.656;7.188;2022-10-29T08:27:11;16.70;99.90
9939;DHT22;5008;50.656;7.188;2022-10-29T08:29:37;16.80;99.90
9939;DHT22;5008;50.656;7.188;2022-10-29T08:32:04;16.90;99.90
9939;DHT22;5008;50.656;7.188;2022-10-29T08:34:32;16.90;99.90
9939;DHT22;5008;50.656;7.188;2022-10-29T08:36:59;16.90;99.90
9939;DHT22;5008;50.656;7.188;2022-10-29T08:39:27;17.00;99.90
9939;DHT22;5008;50.656;7.188;2022-10-29T08:42:01;17.00;99.90
9939;DHT22;5008;50.656;7.188;2022-10-29T08:48:01;17.20;99.90
9939;DHT22;5008;50.656;7.188;2022-10-29T08:58:38;17.50;99.90
9939;DHT22;5008;50.656;7.188;2022-10-29T09:01:09;17.60;99.90
9939;DHT22;5008;50.656;7.188;2022-10-29T09:03:36;17.70;99.90
9939;DHT22;5008;50.656;7.188;2022-10-29T09:06:09;17.70;99.90
9939;DHT22;5008;50.656;7.188;2022-10-29T09:08:46;17.70;99.90
9939;DHT22;5008;50.656;7.188;2022-10-29T09:11:28;17.70;99.90
9939;DHT22;5008;50.656;7.188;2022-10-29T09:14:07;17.70;99.90
9939;DHT22;5008;50.656;7.188;2022-10-29T09:16:47;17.80;99.90
9939;DHT22;5008;50.656;7.188;2022-10-29T09:19:38;17.80;99.90
9939;DHT22;5008;50.656;7.188;2022-10-29T09:22:14;17.80;99.90
9939;DHT22;5008;50.656;7.188;2022-10-29T09:24:48;17.80;99.90
9939;DHT22;5008;50.656;7.188;2022-10-29T09:27:21;17.80;99.90
9939;DHT22;5008;50.656;7.188;2022-10-29T09:30:04;17.90;99.90
9939;DHT22;5008;50.656;7.188;2022-10-29T09:32:49;18.00;99.90
9939;DHT22;5008;50.656;7.188;2022-10-29T09:35:21;18.10;99.90
9939;DHT22;5008;50.656;7.188;2022-10-29T09:37:58;18.10;99.90
9939;DHT22;5008;50.656;7.188;2022-10-29T09:40:32;18.20;99.90
9939;DHT22;5008;50.656;7.188;2022-10-29T09:43:15;18.20;99.90
9939;DHT22;5008;50.656;7.188;2022-10-29T09:45:51;18.20;99.90
9939;DHT22;5008;50.656;7.188;2022-10-29T09:48:25;18.20;99.90
9939;DHT22;5008;50.656;7.188;2022-10-29T09:50:59;18.30;99.90
9939;DHT22;5008;50.656;7.188;2022-10-29T09:53:31;18.30;99.90
9939;DHT22;5008;50.656;7.188;2022-10-29T09:55:58;18.30;99.90
9939;DHT22;5008;50.656;7.188;2022-10-29T09:58:26;18.30;99.90
9939;DHT22;5008;50.656;7.188;2022-10-29T10:00:55;18.40;99.90
9939;DHT22;5008;50.656;7.188;2022-10-29T10:03:26;18.50;99.90
9939;DHT22;5008;50.656;7.188;2022-10-29T10:05:59;18.60;99.90
9939;DHT22;5008;50.656;7.188;2022-10-29T10:08:27;18.70;99.90
9939;DHT22;5008;50.656;7.188;2022-10-29T10:10:55;18.70;99.90
9939;DHT22;5008;50.656;7.188;2022-10-29T10:13:23;18.80;99.90
9939;DHT22;5008;50.656;7.188;2022-10-29T10:15:52;18.90;99.90
9939;DHT22;5008;50.656;7.188;2022-10-29T10:18:23;18.90;99.90
9939;DHT22;5008;50.656;7.188;2022-10-29T10:21:02;19.10;99.90
9939;DHT22;5008;50.656;7.188;2022-10-29T10:23:39;19.10;99.90
9939;DHT22;5008;50.656;7.188;2022-10-29T10:26:33;19.20;99.90
9939;DHT22;5008;50.656;7.188;2022-10-29T10:29:12;19.20;99.90
9939;DHT22;5008;50.656;7.188;2022-10-29T10:31:41;19.20;99.90
9939;DHT22;5008;50.656;7.188;2022-10-29T10:34:15;19.20;99.90
9939;DHT22;5008;50.656;7.188;2022-10-29T10:36:45;19.20;99.90
9939;DHT22;5008;50.656;7.188;2022-10-29T10:39:23;19.10;99.90
9939;DHT22;5008;50.656;7.188;2022-10-29T10:41:51;19.20;99.90
9939;DHT22;5008;50.656;7.188;2022-10-29T10:44:20;19.20;99.90
9939;DHT22;5008;50.656;7.188;2022-10-29T10:46:51;19.20;99.90
9939;DHT22;5008;50.656;7.188;2022-10-29T10:49:28;19.10;99.90
9939;DHT22;5008;50.656;7.188;2022-10-29T10:51:57;19.10;99.90
9939;DHT22;5008;50.656;7.188;2022-10-29T10:54:30;19.10;99.90
9939;DHT22;5008;50.656;7.188;2022-10-29T10:57:00;19.10;99.90
9939;DHT22;5008;50.656;7.188;2022-10-29T10:59:40;19.10;99.90
9939;DHT22;5008;50.656;7.188;2022-10-29T11:02:19;19.00;99.90
9939;DHT22;5008;50.656;7.188;2022-10-29T11:04:54;19.00;99.90
9939;DHT22;5008;50.656;7.188;2022-10-29T11:07:23;19.00;99.90
9939;DHT22;5008;50.656;7.188;2022-10-29T11:09:54;19.00;99.90
9939;DHT22;5008;50.656;7.188;2022-10-29T11:12:29;19.10;99.90
9939;DHT22;5008;50.656;7.188;2022-10-29T11:14:59;19.10;99.90
9939;DHT22;5008;50.656;7.188;2022-10-29T11:17:36;19.10;99.90
9939;DHT22;5008;50.656;7.188;2022-10-29T11:20:13;19.10;99.90
9939;DHT22;5008;50.656;7.188;2022-10-29T11:22:48;19.10;99.90
9939;DHT22;5008;50.656;7.188;2022-10-29T11:25:20;19.20;99.90
9939;DHT22;5008;50.656;7.188;2022-10-29T11:27:54;19.20;99.90
9939;DHT22;5008;50.656;7.188;2022-10-29T11:30:23;19.30;99.90
9939;DHT22;5008;50.656;7.188;2022-10-29T11:32:57;19.40;99.90
9939;DHT22;5008;50.656;7.188;2022-10-29T11:35:35;19.50;99.90
9939;DHT22;5008;50.656;7.188;2022-10-29T11:38:10;19.50;99.90
9939;DHT22;5008;50.656;7.188;2022-10-29T11:40:43;19.60;99.90
9939;DHT22;5008;50.656;7.188;2022-10-29T11:43:17;19.70;99.90
9939;DHT22;5008;50.656;7.188;2022-10-29T11:45:56;19.80;99.90
9939;DHT22;5008;50.656;7.188;2022-10-29T11:48:32;19.70;99.90
9939;DHT22;5008;50.656;7.188;2022-10-29T11:51:06;19.80;99.90
9939;DHT22;5008;50.656;7.188;2022-10-29T11:53:57;19.80;99.90
9939;DHT22;5008;50.656;7.188;2022-10-29T11:56:43;20.00;99.90
9939;DHT22;5008;50.656;7.188;2022-10-29T11:59:21;19.90;99.90
9939;DHT22;5008;50.656;7.188;2022-10-29T12:01:58;20.00;99.90
9939;DHT22;5008;50.656;7.188;2022-10-29T12:04:30;20.10;99.90
9939;DHT22;5008;50.656;7.188;2022-10-29T12:07:17;20.10;99.90
9939;DHT22;5008;50.656;7.188;2022-10-29T12:10:01;20.20;99.90
9939;DHT22;5008;50.656;7.188;2022-10-29T12:12:33;20.10;99.90
9939;DHT22;5008;50.656;7.188;2022-10-29T12:15:10;20.20;99.90
9939;DHT22;5008;50.656;7.188;2022-10-29T12:17:42;20.10;99.90
9939;DHT22;5008;50.656;7.188;2022-10-29T12:20:16;20.20;99.90
9939;DHT22;5008;50.656;7.188;2022-10-29T12:22:50;20.40;99.90
9939;DHT22;5008;50.656;7.188;2022-10-29T12:25:30;20.40;99.90
9939;DHT22;5008;50.656;7.188;2022-10-29T12:28:11;20.40;99.90
9939;DHT22;5008;50.656;7.188;2022-10-29T12:30:49;20.40;99.90
9939;DHT22;5008;50.656;7.188;2022-10-29T12:33:20;20.40;99.90
9939;DHT22;5008;50.656;7.188;2022-10-29T12:35:53;20.40;99.90
9939;DHT22;5008;50.656;7.188;2022-10-29T12:38:34;20.50;99.90
9939;DHT22;5008;50.656;7.188;2022-10-29T12:41:04;20.40;99.90
9939;DHT22;5008;50.656;7.188;2022-10-29T12:43:34;20.40;99.90
9939;DHT22;5008;50.656;7.188;2022-10-29T12:46:09;20.40;99.90
9939;DHT22;5008;50.656;7.188;2022-10-29T12:48:47;20.40;99.90
9939;DHT22;5008;50.656;7.188;2022-10-29T12:51:22;20.30;99.90
9939;DHT22;5008;50.656;7.188;2022-10-29T12:54:10;20.40;99.90
9939;DHT22;5008;50.656;7.188;2022-10-29T12:56:39;20.50;99.90
9939;DHT22;5008;50.656;7.188;2022-10-29T12:59:40;20.50;99.90
9939;DHT22;5008;50.656;7.188;2022-10-29T13:02:27;20.60;99.90
9939;DHT22;5008;50.656;7.188;2022-10-29T13:05:34;20.70;99.90
9939;DHT22;5008;50.656;7.188;2022-10-29T13:08:26;20.70;99.90
9939;DHT22;5008;50.656;7.188;2022-10-29T13:10:55;20.70;99.90
9939;DHT22;5008;50.656;7.188;2022-10-29T13:13:50;20.80;99.90
9939;DHT22;5008;50.656;7.188;2022-10-29T13:16:20;20.60;99.90
9939;DHT22;5008;50.656;7.188;2022-10-29T13:21:54;20.70;99.90
9939;DHT22;5008;50.656;7.188;2022-10-29T13:24:21;20.60;99.90
9939;DHT22;5008;50.656;7.188;2022-10-29T13:27:01;20.50;99.90
9939;DHT22;5008;50.656;7.188;2022-10-29T13:29:42;20.40;99.90
9939;DHT22;5008;50.656;7.188;2022-10-29T13:32:34;20.30;99.90
9939;DHT22;5008;50.656;7.188;2022-10-29T13:35:03;20.20;99.90
9939;DHT22;5008;50.656;7.188;2022-10-29T13:37:47;20.30;99.90
9939;DHT22;5008;50.656;7.188;2022-10-29T13:40:40;20.20;99.90
9939;DHT22;5008;50.656;7.188;2022-10-29T13:43:15;20.20;99.90
9939;DHT22;5008;50.656;7.188;2022-10-29T13:45:47;20.20;99.90
9939;DHT22;5008;50.656;7.188;2022-10-29T13:48:24;20.30;99.90
9939;DHT22;5008;50.656;7.188;2022-10-29T13:50:54;20.30;99.90
9939;DHT22;5008;50.656;7.188;2022-10-29T13:53:27;20.30;99.90
9939;DHT22;5008;50.656;7.188;2022-10-29T13:55:58;20.40;99.90
9939;DHT22;5008;50.656;7.188;2022-10-29T13:58:29;20.40;99.90
9939;DHT22;5008;50.656;7.188;2022-10-29T14:00:58;20.60;99.90
9939;DHT22;5008;50.656;7.188;2022-10-29T14:03:32;20.60;99.90
9939;DHT22;5008;50.656;7.188;2022-10-29T14:06:05;20.70;99.90
9939;DHT22;5008;50.656;7.188;2022-10-29T14:08:39;20.70;99.90
9939;DHT22;5008;50.656;7.188;2022-10-29T14:11:13;20.80;99.90
9939;DHT22;5008;50.656;7.188;2022-10-29T14:13:46;21.00;99.90
9939;DHT22;5008;50.656;7.188;2022-10-29T14:16:15;21.10;99.90
9939;DHT22;5008;50.656;7.188;2022-10-29T14:18:46;21.10;99.90
9939;DHT22;5008;50.656;7.188;2022-10-29T14:21:15;21.10;99.90
9939;DHT22;5008;50.656;7.188;2022-10-29T14:23:57;21.10;99.90
9939;DHT22;5008;50.656;7.188;2022-10-29T14:26:25;21.00;99.90
9939;DHT22;5008;50.656;7.188;2022-10-29T14:28:54;21.00;99.90
9939;DHT22;5008;50.656;7.188;2022-10-29T14:31:22;21.00;99.90
9939;DHT22;5008;50.656;7.188;2022-10-29T14:33:53;21.00;99.90
9939;DHT22;5008;50.656;7.188;2022-10-29T14:36:25;20.80;99.90
9939;DHT22;5008;50.656;7.188;2022-10-29T14:38:54;20.60;99.90
9939;DHT22;5008;50.656;7.188;2022-10-29T14:41:23;20.50;99.90
9939;DHT22;5008;50.656;7.188;2022-10-29T14:43:55;20.40;99.90
9939;DHT22;5008;50.656;7.188;2022-10-29T14:46:29;20.30;99.90
9939;DHT22;5008;50.656;7.188;2022-10-29T14:49:01;20.30;99.90
9939;DHT22;5008;50.656;7.188;2022-10-29T14:51:34;20.10;99.90
9939;DHT22;5008;50.656;7.188;2022-10-29T14:54:03;20.10;99.90
9939;DHT22;5008;50.656;7.188;2022-10-29T14:56:35;20.00;99.90
9939;DHT22;5008;50.656;7.188;2022-10-29T14:59:11;19.90;99.90
9939;DHT22;5008;50.656;7.188;2022-10-29T15:01:48;19.90;99.90
9939;DHT22;5008;50.656;7.188;2022-10-29T15:04:20;19.80;99.90
9939;DHT22;5008;50.656;7.188;2022-10-29T15:06:47;19.70;99.90
9939;DHT22;5008;50.656;7.188;2022-10-29T15:09:16;19.70;99.90
9939;DHT22;5008;50.656;7.188;2022-10-29T15:11:59;19.60;99.90
9939;DHT22;5008;50.656;7.188;2022-10-29T15:14:33;19.60;99.90
9939;DHT22;5008;50.656;7.188;2022-10-29T15:17:07;19.50;99.90
9939;DHT22;5008;50.656;7.188;2022-10-29T15:19:35;19.40;99.90
9939;DHT22;5008;50.656;7.188;2022-10-29T15:22:07;19.40;99.90
9939;DHT22;5008;50.656;7.188;2022-10-29T15:24:34;19.30;99.90
9939;DHT22;5008;50.656;7.188;2022-10-29T15:27:01;19.40;99.90
9939;DHT22;5008;50.656;7.188;2022-10-29T15:29:36;19.40;99.90
9939;DHT22;5008;50.656;7.188;2022-10-29T15:32:04;19.40;99.90
9939;DHT22;5008;50.656;7.188;2022-10-29T15:34:33;19.40;99.90
9939;DHT22;5008;50.656;7.188;2022-10-29T15:37:18;19.40;99.90
9939;DHT22;5008;50.656;7.188;2022-10-29T15:40:04;19.40;99.90
9939;DHT22;5008;50.656;7.188;2022-10-29T15:42:32;19.30;99.90
9939;DHT22;5008;50.656;7.188;2022-10-29T15:45:15;19.30;99.90
9939;DHT22;5008;50.656;7.188;2022-10-29T15:47:44;19.20;99.90
9939;DHT22;5008;50.656;7.188;2022-10-29T15:50:14;19.20;99.90
9939;DHT22;5008;50.656;7.188;2022-10-29T15:52:43;19.20;99.90
9939;DHT22;5008;50.656;7.188;2022-10-29T15:55:15;19.10;99.90
9939;DHT22;5008;50.656;7.188;2022-10-29T15:57:44;19.00;99.90
9939;DHT22;5008;50.656;7.188;2022-10-29T16:00:13;19.00;99.90
9939;DHT22;5008;50.656;7.188;2022-10-29T16:02:40;18.90;99.90
9939;DHT22;5008;50.656;7.188;2022-10-29T16:05:11;18.90;99.90
9939;DHT22;5008;50.656;7.188;2022-10-29T16:07:38;18.90;99.90
9939;DHT22;5008;50.656;7.188;2022-10-29T16:10:06;18.80;99.90
9939;DHT22;5008;50.656;7.188;2022-10-29T16:12:38;18.80;99.90
9939;DHT22;5008;50.656;7.188;2022-10-29T16:15:07;18.80;99.90
9939;DHT22;5008;50.656;7.188;2022-10-29T16:17:38;18.80;99.90
9939;DHT22;5008;50.656;7.188;2022-10-29T16:20:08;18.80;99.90
9939;DHT22;5008;50.656;7.188;2022-10-29T16:22:38;18.80;99.90
9939;DHT22;5008;50.656;7.188;2022-10-29T16:25:05;18.70;99.90
9939;DHT22;5008;50.656;7.188;2022-10-29T16:27:32;18.60;99.90
9939;DHT22;5008;50.656;7.188;2022-10-29T16:29:59;18.60;99.90
9939;DHT22;5008;50.656;7.188;2022-10-29T16:32:26;18.60;99.90
9939;DHT22;5008;50.656;7.188;2022-10-29T16:34:54;18.60;99.90
9939;DHT22;5008;50.656;7.188;2022-10-29T16:37:20;18.60;99.90
9939;DHT22;5008;50.656;7.188;2022-10-29T16:39:47;18.50;99.90
9939;DHT22;5008;50.656;7.188;2022-10-29T16:42:27;18.50;99.90